FTU5083 ZHLY-ZUGH
Flight info
| Callsign | FTU5083 |
|---|---|
| Flight time | N/A |
| Altitude | 17700 |
| Route | LYA DCT P52 H34 SHX W152 BUBDU W276 ANRUG W279 ONEBA G212 SUBUL W230 MYG DCT JTG DCT GHN |
| Aircraft | MA60/M-SDFGIRY/S |
Departure
| Time | 2026-05-07 07:52 |
|---|---|
| Airport | Luoyang Beijiao Airport (ZHLY) |
Arrival
| Time | N/A |
|---|---|
| Airport | Guanghan Airport (ZUGH) |
| Time | Latitude | Longitude | Altitude | Speed | Heading |
|---|---|---|---|---|---|
| 2026-05-07 07:04 | 34.73761 | 112.38339 | 861 ft | 0 kts | 166° |
| 2026-05-07 07:25 | 34.73722 | 112.38402 | 861 ft | 0 kts | 166° |
| 2026-05-07 07:45 | 34.73711 | 112.38406 | 852 ft | 3 kts | 163° |
| 2026-05-07 07:45 | 34.73710 | 112.38407 | 853 ft | 0 kts | 138° |
| 2026-05-07 07:45 | 34.73711 | 112.38430 | 857 ft | 7 kts | 66° |
| 2026-05-07 07:45 | 34.73756 | 112.38471 | 856 ft | 9 kts | 27° |
| 2026-05-07 07:46 | 34.73824 | 112.38483 | 862 ft | 11 kts | 349° |
| 2026-05-07 07:46 | 34.73886 | 112.38442 | 862 ft | 10 kts | 280° |
| 2026-05-07 07:46 | 34.73881 | 112.38402 | 861 ft | 0 kts | 253° |
| 2026-05-07 07:47 | 34.73875 | 112.38376 | 862 ft | 6 kts | 255° |
| 2026-05-07 07:47 | 34.73863 | 112.38317 | 861 ft | 8 kts | 256° |
| 2026-05-07 07:47 | 34.73849 | 112.38248 | 860 ft | 9 kts | 257° |
| 2026-05-07 07:48 | 34.73834 | 112.38173 | 857 ft | 9 kts | 256° |
| 2026-05-07 07:48 | 34.73823 | 112.38119 | 857 ft | 10 kts | 255° |
| 2026-05-07 07:48 | 34.73800 | 112.38010 | 853 ft | 10 kts | 256° |
| 2026-05-07 07:48 | 34.73784 | 112.37929 | 852 ft | 10 kts | 257° |
| 2026-05-07 07:49 | 34.73769 | 112.37849 | 847 ft | 10 kts | 257° |
| 2026-05-07 07:49 | 34.73755 | 112.37771 | 854 ft | 9 kts | 259° |
| 2026-05-07 07:49 | 34.73746 | 112.37719 | 856 ft | 9 kts | 254° |
| 2026-05-07 07:49 | 34.73726 | 112.37647 | 851 ft | 9 kts | 250° |
| 2026-05-07 07:50 | 34.73709 | 112.37578 | 851 ft | 8 kts | 259° |
| 2026-05-07 07:50 | 34.73724 | 112.37515 | 850 ft | 8 kts | 330° |
| 2026-05-07 07:50 | 34.73788 | 112.37497 | 848 ft | 10 kts | 346° |
| 2026-05-07 07:50 | 34.73859 | 112.37493 | 855 ft | 9 kts | 39° |
| 2026-05-07 07:51 | 34.73874 | 112.37554 | 856 ft | 3 kts | 76° |
| 2026-05-07 07:51 | 34.73874 | 112.37555 | 856 ft | 0 kts | 76° |
| 2026-05-07 07:51 | 34.73932 | 112.37833 | 858 ft | 72 kts | 78° |
| 2026-05-07 07:52 | 34.74113 | 112.38712 | 915 ft | 132 kts | 77° |
| 2026-05-07 07:52 | 34.74356 | 112.39824 | 1488 ft | 130 kts | 81° |
| 2026-05-07 07:52 | 34.74580 | 112.41000 | 1966 ft | 154 kts | 77° |
| 2026-05-07 07:52 | 34.74865 | 112.42341 | 2495 ft | 166 kts | 78° |
| 2026-05-07 07:53 | 34.75146 | 112.43681 | 3366 ft | 161 kts | 73° |
| 2026-05-07 07:53 | 34.75496 | 112.44984 | 4149 ft | 164 kts | 72° |
| 2026-05-07 07:53 | 34.75651 | 112.46337 | 4845 ft | 165 kts | 107° |
| 2026-05-07 07:53 | 34.74941 | 112.47378 | 5554 ft | 169 kts | 158° |
| 2026-05-07 07:54 | 34.73799 | 112.47378 | 6303 ft | 169 kts | 209° |
| 2026-05-07 07:54 | 34.72886 | 112.46502 | 7003 ft | 169 kts | 232° |
| 2026-05-07 07:54 | 34.72099 | 112.45428 | 7717 ft | 171 kts | 233° |
| 2026-05-07 07:54 | 34.71302 | 112.44333 | 8282 ft | 176 kts | 233° |
| 2026-05-07 07:55 | 34.70456 | 112.43239 | 8686 ft | 178 kts | 230° |
| 2026-05-07 07:55 | 34.69543 | 112.42199 | 9079 ft | 182 kts | 226° |
| 2026-05-07 07:55 | 34.68549 | 112.41209 | 9483 ft | 186 kts | 223° |
| 2026-05-07 07:55 | 34.67506 | 112.40260 | 9884 ft | 189 kts | 221° |
| 2026-05-07 07:56 | 34.66434 | 112.39319 | 10258 ft | 191 kts | 221° |
| 2026-05-07 07:56 | 34.65369 | 112.38393 | 10631 ft | 191 kts | 221° |
| 2026-05-07 07:56 | 34.64287 | 112.37457 | 11010 ft | 191 kts | 222° |
| 2026-05-07 07:56 | 34.63211 | 112.36505 | 11393 ft | 191 kts | 223° |
| 2026-05-07 07:57 | 34.62138 | 112.35546 | 11758 ft | 192 kts | 224° |
| 2026-05-07 07:57 | 34.61068 | 112.34590 | 12139 ft | 191 kts | 224° |
| 2026-05-07 07:57 | 34.59995 | 112.33629 | 12499 ft | 192 kts | 224° |
| 2026-05-07 07:57 | 34.58918 | 112.32664 | 12849 ft | 193 kts | 224° |
| 2026-05-07 07:58 | 34.57840 | 112.31697 | 13220 ft | 193 kts | 225° |
| 2026-05-07 07:58 | 34.56756 | 112.30729 | 13584 ft | 193 kts | 225° |
| 2026-05-07 07:58 | 34.55671 | 112.29757 | 13927 ft | 194 kts | 225° |
| 2026-05-07 07:58 | 34.54583 | 112.28783 | 14227 ft | 194 kts | 225° |
| 2026-05-07 07:59 | 34.53499 | 112.27814 | 14543 ft | 194 kts | 225° |
| 2026-05-07 07:59 | 34.52408 | 112.26841 | 14846 ft | 194 kts | 225° |
| 2026-05-07 07:59 | 34.51330 | 112.25881 | 15137 ft | 195 kts | 225° |
| 2026-05-07 07:59 | 34.50242 | 112.24907 | 15433 ft | 194 kts | 225° |
| 2026-05-07 08:00 | 34.49151 | 112.23937 | 15711 ft | 195 kts | 225° |
| 2026-05-07 08:00 | 34.48057 | 112.22963 | 15992 ft | 195 kts | 225° |
| 2026-05-07 08:00 | 34.46965 | 112.21990 | 16265 ft | 195 kts | 225° |
| 2026-05-07 08:00 | 34.45870 | 112.21015 | 16525 ft | 195 kts | 225° |
| 2026-05-07 08:01 | 34.44776 | 112.20043 | 16782 ft | 196 kts | 224° |
| 2026-05-07 08:01 | 34.43796 | 112.18958 | 16971 ft | 185 kts | 250° |
| 2026-05-07 08:01 | 34.43340 | 112.17534 | 17257 ft | 180 kts | 258° |
| 2026-05-07 08:01 | 34.42971 | 112.16081 | 17550 ft | 180 kts | 260° |
| 2026-05-07 08:02 | 34.42630 | 112.14589 | 17706 ft | 190 kts | 261° |
| 2026-05-07 08:02 | 34.42271 | 112.12977 | 17761 ft | 206 kts | 261° |
| 2026-05-07 08:02 | 34.41889 | 112.11240 | 17793 ft | 221 kts | 260° |
| 2026-05-07 08:02 | 34.41458 | 112.09386 | 17799 ft | 235 kts | 258° |
| 2026-05-07 08:03 | 34.40985 | 112.07473 | 17794 ft | 245 kts | 257° |
| 2026-05-07 08:03 | 34.40487 | 112.05462 | 17789 ft | 252 kts | 258° |
| 2026-05-07 08:03 | 34.39978 | 112.03402 | 17799 ft | 258 kts | 258° |
| 2026-05-07 08:03 | 34.39459 | 112.01308 | 17806 ft | 262 kts | 258° |
| 2026-05-07 08:04 | 34.38935 | 111.99179 | 17800 ft | 265 kts | 258° |
| 2026-05-07 08:04 | 34.38402 | 111.97029 | 17809 ft | 267 kts | 257° |
| 2026-05-07 08:04 | 34.37869 | 111.94864 | 17813 ft | 269 kts | 257° |
| 2026-05-07 08:04 | 34.37327 | 111.92678 | 17809 ft | 271 kts | 257° |
| 2026-05-07 08:05 | 34.36796 | 111.90531 | 17802 ft | 273 kts | 257° |
| 2026-05-07 08:05 | 34.36246 | 111.88312 | 17804 ft | 273 kts | 257° |
| 2026-05-07 08:05 | 34.35696 | 111.86105 | 17810 ft | 274 kts | 257° |
| 2026-05-07 08:05 | 34.35151 | 111.83904 | 17810 ft | 271 kts | 257° |
| 2026-05-07 08:06 | 34.34613 | 111.81753 | 17801 ft | 265 kts | 257° |
| 2026-05-07 08:06 | 34.34085 | 111.79627 | 17810 ft | 262 kts | 258° |
| 2026-05-07 08:06 | 34.33560 | 111.77526 | 17822 ft | 259 kts | 258° |
| 2026-05-07 08:06 | 34.33039 | 111.75441 | 17811 ft | 258 kts | 257° |
| 2026-05-07 08:07 | 34.32524 | 111.73371 | 17802 ft | 256 kts | 258° |
| 2026-05-07 08:07 | 34.32009 | 111.71310 | 17812 ft | 255 kts | 258° |
| 2026-05-07 08:07 | 34.31497 | 111.69259 | 17813 ft | 254 kts | 258° |
| 2026-05-07 08:07 | 34.30989 | 111.67216 | 17816 ft | 252 kts | 257° |
| 2026-05-07 08:08 | 34.30480 | 111.65194 | 17818 ft | 251 kts | 258° |
| 2026-05-07 08:08 | 34.29974 | 111.63178 | 17817 ft | 249 kts | 257° |
| 2026-05-07 08:08 | 34.29474 | 111.61176 | 17809 ft | 247 kts | 258° |
| 2026-05-07 08:08 | 34.28977 | 111.59189 | 17829 ft | 247 kts | 258° |
| 2026-05-07 08:09 | 34.28479 | 111.57207 | 17822 ft | 247 kts | 257° |
| 2026-05-07 08:09 | 34.27979 | 111.55218 | 17816 ft | 247 kts | 257° |
| 2026-05-07 08:09 | 34.27484 | 111.53254 | 17826 ft | 247 kts | 258° |
| 2026-05-07 08:09 | 34.26987 | 111.51264 | 17814 ft | 247 kts | 257° |
| 2026-05-07 08:10 | 34.26484 | 111.49277 | 17831 ft | 247 kts | 257° |
| 2026-05-07 08:10 | 34.25982 | 111.47290 | 17824 ft | 247 kts | 257° |
| 2026-05-07 08:10 | 34.25483 | 111.45301 | 17825 ft | 247 kts | 257° |
| 2026-05-07 08:10 | 34.24982 | 111.43309 | 17833 ft | 248 kts | 257° |
| 2026-05-07 08:11 | 34.24482 | 111.41314 | 17826 ft | 248 kts | 257° |
| 2026-05-07 08:11 | 34.23979 | 111.39315 | 17834 ft | 248 kts | 257° |
| 2026-05-07 08:11 | 34.23471 | 111.37316 | 17834 ft | 249 kts | 257° |
| 2026-05-07 08:11 | 34.22976 | 111.35341 | 17828 ft | 249 kts | 257° |
| 2026-05-07 08:12 | 34.22473 | 111.33307 | 17820 ft | 249 kts | 258° |
| 2026-05-07 08:12 | 34.21988 | 111.31326 | 17830 ft | 248 kts | 258° |
| 2026-05-07 08:12 | 34.21500 | 111.29328 | 17833 ft | 248 kts | 258° |
| 2026-05-07 08:12 | 34.21011 | 111.27331 | 17835 ft | 248 kts | 258° |
| 2026-05-07 08:13 | 34.20521 | 111.25333 | 17832 ft | 248 kts | 258° |
| 2026-05-07 08:13 | 34.20030 | 111.23338 | 17836 ft | 248 kts | 258° |
| 2026-05-07 08:13 | 34.19537 | 111.21345 | 17828 ft | 247 kts | 257° |
| 2026-05-07 08:13 | 34.19046 | 111.19362 | 17822 ft | 246 kts | 258° |
| 2026-05-07 08:14 | 34.18557 | 111.17380 | 17817 ft | 245 kts | 258° |
| 2026-05-07 08:14 | 34.18072 | 111.15412 | 17850 ft | 245 kts | 258° |
| 2026-05-07 08:14 | 34.17589 | 111.13459 | 17851 ft | 247 kts | 258° |
| 2026-05-07 08:14 | 34.17091 | 111.11447 | 17844 ft | 247 kts | 257° |
| 2026-05-07 08:15 | 34.16601 | 111.09479 | 17846 ft | 248 kts | 258° |
| 2026-05-07 08:15 | 34.16105 | 111.07482 | 17843 ft | 248 kts | 258° |
| 2026-05-07 08:15 | 34.15611 | 111.05478 | 17848 ft | 250 kts | 258° |
| 2026-05-07 08:15 | 34.15114 | 111.03470 | 17840 ft | 250 kts | 258° |
| 2026-05-07 08:16 | 34.14615 | 111.01455 | 17836 ft | 250 kts | 258° |
| 2026-05-07 08:16 | 34.14114 | 110.99448 | 17844 ft | 250 kts | 257° |
| 2026-05-07 08:16 | 34.13611 | 110.97436 | 17837 ft | 250 kts | 257° |
| 2026-05-07 08:16 | 34.13108 | 110.95424 | 17844 ft | 250 kts | 258° |
| 2026-05-07 08:17 | 34.12610 | 110.93414 | 17842 ft | 250 kts | 257° |
| 2026-05-07 08:17 | 34.12111 | 110.91405 | 17846 ft | 250 kts | 257° |
| 2026-05-07 08:17 | 34.11608 | 110.89392 | 17844 ft | 250 kts | 257° |
| 2026-05-07 08:17 | 34.11105 | 110.87386 | 17850 ft | 250 kts | 257° |
| 2026-05-07 08:18 | 34.10601 | 110.85374 | 17847 ft | 251 kts | 257° |
| 2026-05-07 08:18 | 34.10097 | 110.83356 | 17851 ft | 251 kts | 257° |
| 2026-05-07 08:18 | 34.09599 | 110.81360 | 17852 ft | 252 kts | 257° |
| 2026-05-07 08:18 | 34.09087 | 110.79310 | 17853 ft | 252 kts | 257° |
| 2026-05-07 08:19 | 34.08586 | 110.77314 | 17853 ft | 252 kts | 257° |
| 2026-05-07 08:19 | 34.08075 | 110.75284 | 17849 ft | 253 kts | 257° |
| 2026-05-07 08:19 | 34.07566 | 110.73258 | 17844 ft | 253 kts | 257° |
| 2026-05-07 08:19 | 34.07059 | 110.71231 | 17865 ft | 252 kts | 257° |
| 2026-05-07 08:20 | 34.06548 | 110.69198 | 17868 ft | 253 kts | 257° |
| 2026-05-07 08:20 | 34.06034 | 110.67162 | 17870 ft | 255 kts | 257° |
| 2026-05-07 08:20 | 34.05518 | 110.65124 | 17860 ft | 253 kts | 257° |
| 2026-05-07 08:20 | 34.05003 | 110.63087 | 17866 ft | 254 kts | 257° |
| 2026-05-07 08:21 | 34.04490 | 110.61044 | 17863 ft | 255 kts | 257° |
| 2026-05-07 08:21 | 34.03976 | 110.59000 | 17850 ft | 254 kts | 257° |
| 2026-05-07 08:21 | 34.03462 | 110.56966 | 17858 ft | 254 kts | 257° |
| 2026-05-07 08:21 | 34.02944 | 110.54922 | 17862 ft | 254 kts | 257° |
| 2026-05-07 08:22 | 34.02434 | 110.52912 | 17859 ft | 254 kts | 257° |
| 2026-05-07 08:22 | 34.01916 | 110.50843 | 17856 ft | 255 kts | 257° |
| 2026-05-07 08:22 | 34.01419 | 110.48823 | 17854 ft | 254 kts | 258° |
| 2026-05-07 08:22 | 34.00918 | 110.46776 | 17859 ft | 254 kts | 258° |
| 2026-05-07 08:23 | 34.00417 | 110.44734 | 17850 ft | 254 kts | 258° |
| 2026-05-07 08:23 | 33.99918 | 110.42697 | 17866 ft | 254 kts | 257° |
| 2026-05-07 08:23 | 33.99417 | 110.40657 | 17863 ft | 254 kts | 257° |
| 2026-05-07 08:23 | 33.98910 | 110.38616 | 17856 ft | 254 kts | 257° |
| 2026-05-07 08:24 | 33.98403 | 110.36573 | 17866 ft | 254 kts | 257° |
| 2026-05-07 08:24 | 33.97897 | 110.34531 | 17859 ft | 254 kts | 257° |
| 2026-05-07 08:24 | 33.97392 | 110.32494 | 17862 ft | 254 kts | 258° |
| 2026-05-07 08:24 | 33.96887 | 110.30451 | 17868 ft | 255 kts | 258° |
| 2026-05-07 08:25 | 33.96383 | 110.28403 | 17858 ft | 255 kts | 258° |
| 2026-05-07 08:25 | 33.95875 | 110.26353 | 17860 ft | 255 kts | 257° |
| 2026-05-07 08:25 | 33.95367 | 110.24305 | 17854 ft | 255 kts | 257° |
| 2026-05-07 08:25 | 33.94856 | 110.22257 | 17862 ft | 255 kts | 257° |
| 2026-05-07 08:26 | 33.93835 | 110.18166 | 17860 ft | 255 kts | 257° |
| 2026-05-07 08:26 | 33.93326 | 110.16118 | 17871 ft | 255 kts | 257° |
| 2026-05-07 08:26 | 33.92822 | 110.14095 | 17867 ft | 256 kts | 257° |
| 2026-05-07 08:27 | 33.92311 | 110.12039 | 17868 ft | 256 kts | 257° |